Hakalau, HI (96710)

5:06 AM HST on February 09, 2016 (GMT -1000)
Lepoloa | | Change Station
CLOSE
Current Station
Personal Weather Station
Location: Pepeekeo, HI
Elevation: 417 ft
Nearby Weather Stations

Elev 417 ft 19.91 °N, 155.15 °W | Updated 11 seconds ago

Clear
Clear
63.5 °F
Feels Like 63.5 °F
N
3.4
Wind Variable Wind from WSW
Gusts 4.9 mph

Today
High -- | Low -- °F
--% Chance of Precip.
Yesterday
High -- | Low -- °F
Precip. -- in
Pressure 30.02 in
Visibility 10.0 miles
Clouds Clear
Dew Point 47 °F
Humidity 54%
Rainfall 0.00 in
Snow Depth Not available.
6:52 AM 6:16 PM
New Moon, 1% visible
METAR PHTO 091453Z 24007KT 10SM CLR 16/11 A3002 RMK AO2 SLP165 T01610111 55001 $
Pressure 30.02 in
Visibility 10.0 miles
Clouds Clear
Dew Point 47 °F
Humidity 54%
Rainfall 0.00 in
Snow Depth Not available.
6:52 AM 6:16 PM
New Moon, 1% visible
METAR PHTO 091453Z 24007KT 10SM CLR 16/11 A3002 RMK AO2 SLP165 T01610111 55001 $

10-Day Weather Forecast

Almanac

Astronomy

Feb. 09, 2016 Rise Set
Actual Time
Civil Twilight
Nautical Twilight
Astronomical Twilight
Moon
Length of Visible Light
Length of Day
Tomorrow will be .
, % of the Moon is Illuminated

Today's Extremes

State Highs State Lows

Community

WunderPhotos

Upload Photos

1,891,616 photos uploaded!

WunderBlog® & News

Nearby

Air Quality

  Air Quality AQ Index Pollutant
Not available.

Snow Depth

Station Depth Elevation

Earthquake Activity

City Distance Mag. Time & Date
Minimum magnitude displayed is 2.5.

Coastal Water Temperatures

Place Temperature

Stations

Nearby Weather Stations

Station Location Temp. Windchill Dew Point Humidity Wind Precip. Elev Updated Type
                   

Watches & Warnings

There are currently no watches in effect.